Time;durP1;ratioP1;P1;durP2;ratioP2;P2;SDS_P1;SDS_P2;PMS_P1;PMS_P2;Temp;Humidity;BMP_temperature;BMP_pressure;BME280_temperature;BME280_humidity;BME280_pressure;Samples;Min_cycle;Max_cycle;Signal;HPM_P1;HPM_P2
2022/09/18 00:00:19;;;;;;;0.45;0.20;;;22.10;71.90;;;;;;5085248;28;45498;-75
2022/09/18 00:02:46;;;;;;;0.50;0.20;;;22.10;71.80;;;;;;5085210;28;47407;-75
2022/09/18 00:05:13;;;;;;;0.52;0.20;;;22.10;71.90;;;;;;5085223;28;46307;-75
2022/09/18 00:07:40;;;;;;;0.17;0.10;;;22.10;72.00;;;;;;5085333;28;45254;-75
2022/09/18 00:10:08;;;;;;;0.22;0.20;;;22.10;71.80;;;;;;5085110;28;45447;-75
2022/09/18 00:12:36;;;;;;;0.47;0.30;;;22.10;71.70;;;;;;5084874;28;48673;-75
2022/09/18 00:15:03;;;;;;;1.98;0.30;;;22.10;71.70;;;;;;5085319;28;45102;-74
2022/09/18 00:17:30;;;;;;;1.83;0.30;;;22.10;71.70;;;;;;5085057;28;45132;-75
2022/09/18 00:19:57;;;;;;;1.98;0.32;;;22.10;71.90;;;;;;5084994;28;45462;-75
2022/09/18 00:22:24;;;;;;;0.73;0.30;;;22.10;72.10;;;;;;5078002;28;47221;-75
2022/09/18 00:24:51;;;;;;;1.33;0.30;;;22.10;72.20;;;;;;5084833;28;45310;-75
2022/09/18 00:27:18;;;;;;;0.65;0.20;;;22.10;72.40;;;;;;5085365;27;45214;-75
2022/09/18 00:29:46;;;;;;;0.82;0.25;;;22.10;72.40;;;;;;5088226;28;45176;-75
2022/09/18 00:32:13;;;;;;;1.55;0.30;;;22.10;72.20;;;;;;5088034;28;46317;-75
2022/09/18 00:34:40;;;;;;;0.35;0.20;;;22.10;72.20;;;;;;5088184;28;45178;-75
2022/09/18 00:37:07;;;;;;;0.93;0.22;;;22.10;72.30;;;;;;5088351;28;45447;-75
2022/09/18 00:39:34;;;;;;;0.85;0.30;;;22.10;72.40;;;;;;5070615;28;45553;-75
2022/09/18 00:42:01;;;;;;;0.75;0.30;;;22.20;72.40;;;;;;5084574;28;47297;-75
2022/09/18 00:44:35;;;;;;;0.20;0.17;;;22.10;72.40;;;;;;5087942;28;45249;-75
2022/09/18 00:47:14;;;;;;;0.43;0.17;;;22.20;72.40;;;;;;5088267;28;45292;-75
2022/09/18 00:49:44;;;;;;;0.77;0.22;;;22.10;72.20;;;;;;5067725;28;45308;-75
2022/09/18 00:52:13;;;;;;;0.85;0.28;;;22.20;72.50;;;;;;5067372;28;46673;-75
2022/09/18 00:54:43;;;;;;;0.68;0.28;;;22.10;72.40;;;;;;5083103;28;45391;-75
2022/09/18 00:57:13;;;;;;;0.47;0.28;;;22.10;72.40;;;;;;5088042;28;45285;-75
2022/09/18 00:59:43;;;;;;;0.22;0.20;;;22.10;72.40;;;;;;5088464;28;45664;-74
2022/09/18 01:02:11;;;;;;;0.50;0.20;;;22.20;72.70;;;;;;5088124;28;47119;-75
2022/09/18 01:04:38;;;;;;;2.15;0.20;;;22.10;72.40;;;;;;5087806;28;45301;-75
2022/09/18 01:07:14;;;;;;;0.73;0.30;;;22.20;72.50;;;;;;5088028;28;45256;-75
2022/09/18 01:09:49;;;;;;;0.75;0.22;;;22.20;72.50;;;;;;5072126;28;45416;-75
2022/09/18 01:12:24;;;;;;;0.55;0.20;;;22.20;72.50;;;;;;5077684;28;46583;-75
2022/09/18 01:15:00;;;;;;;1.20;0.35;;;22.20;72.40;;;;;;5087270;28;45234;-74
2022/09/18 01:17:35;;;;;;;0.80;0.20;;;22.10;72.40;;;;;;5088032;28;45273;-75
2022/09/18 01:20:34;;;;;;;1.17;0.30;;;22.10;72.40;;;;;;5067612;28;45371;-74
2022/09/18 01:23:14;;;;;;;0.43;0.20;;;22.10;72.50;;;;;;5067160;28;46398;-75
2022/09/18 01:25:56;;;;;;;0.17;0.17;;;22.10;72.40;;;;;;5067171;28;45310;-75
2022/09/18 01:28:31;;;;;;;0.32;0.20;;;22.10;72.40;;;;;;5065080;28;45589;-74
2022/09/18 01:31:06;;;;;;;0.63;0.20;;;22.10;72.20;;;;;;5067330;28;45586;-75
2022/09/18 01:33:40;;;;;;;0.85;0.30;;;22.10;72.30;;;;;;5067007;28;46438;-75
2022/09/18 01:36:10;;;;;;;0.47;0.20;;;22.10;72.20;;;;;;5065978;28;45250;-75
2022/09/18 01:38:44;;;;;;;0.10;0.10;;;22.10;72.40;;;;;;5066751;28;45153;-75
2022/09/18 01:41:15;;;;;;;0.50;0.20;;;22.10;72.40;;;;;;5067228;28;45417;-75
2022/09/18 01:43:45;;;;;;;0.32;0.20;;;22.10;72.40;;;;;;5066910;28;46457;-75
2022/09/18 01:46:15;;;;;;;0.68;0.32;;;22.10;73.30;;;;;;5067499;28;45329;-75
2022/09/18 01:48:46;;;;;;;0.63;0.13;;;22.10;72.50;;;;;;5066725;28;45269;-75
2022/09/18 01:51:17;;;;;;;0.47;0.17;;;22.10;72.40;;;;;;5067092;28;45235;-75
2022/09/18 01:53:48;;;;;;;0.08;0.08;;;22.10;72.60;;;;;;5085607;27;47295;-75
2022/09/18 01:56:21;;;;;;;0.73;0.20;;;22.10;72.50;;;;;;5086989;28;45338;-75
2022/09/18 01:58:53;;;;;;;0.55;0.20;;;22.10;72.40;;;;;;5087061;28;45295;-75
2022/09/18 02:01:46;;;;;;;0.50;0.20;;;22.10;72.40;;;;;;5087073;28;45424;-75
2022/09/18 02:04:18;;;;;;;0.60;0.20;;;22.10;72.30;;;;;;5086795;27;46645;-75
2022/09/18 02:06:52;;;;;;;3.55;0.25;;;22.10;72.40;;;;;;5086777;28;45206;-75
2022/09/18 02:09:20;;;;;;;0.20;0.08;;;22.10;72.40;;;;;;5087075;28;45313;-75
2022/09/18 02:11:54;;;;;;;0.55;0.22;;;22.10;72.20;;;;;;5086805;28;45435;-75
2022/09/18 02:14:28;;;;;;;0.30;0.20;;;22.10;72.30;;;;;;5087166;28;46759;-75
2022/09/18 02:16:59;;;;;;;0.47;0.20;;;22.10;72.20;;;;;;5086617;28;45993;-75
2022/09/18 02:19:30;;;;;;;0.10;0.10;;;22.10;72.20;;;;;;5086827;27;45329;-75
2022/09/18 02:22:00;;;;;;;0.28;0.17;;;22.00;72.10;;;;;;5084749;28;45272;-75
2022/09/18 02:24:32;;;;;;;0.38;0.30;;;22.10;72.40;;;;;;5086646;28;46621;-75
2022/09/18 02:27:01;;;;;;;0.45;0.32;;;22.10;72.30;;;;;;5085529;28;45245;-75
2022/09/18 02:29:30;;;;;;;1.27;0.20;;;22.10;72.30;;;;;;5086354;28;45470;-75
2022/09/18 02:31:59;;;;;;;0.40;0.20;;;22.10;72.40;;;;;;5086703;28;45565;-75
2022/09/18 02:34:26;;;;;;;0.10;0.10;;;22.10;72.40;;;;;;5086439;28;47129;-75
2022/09/18 02:37:24;;;;;;;0.45;0.20;;;22.10;72.40;;;;;;5086369;28;45241;-75
2022/09/18 02:40:06;;;;;;;0.75;0.22;;;22.10;72.70;;;;;;5086763;28;45323;-74
2022/09/18 02:42:42;;;;;;;0.30;0.10;;;22.10;72.80;;;;;;5086858;28;45161;-75
2022/09/18 02:45:19;;;;;;;0.25;0.20;;;22.10;72.80;;;;;;5086388;28;47036;-75
2022/09/18 02:48:08;;;;;;;0.60;0.28;;;22.10;73.90;;;;;;5086318;28;45183;-75
2022/09/18 02:50:40;;;;;;;0.30;0.10;;;22.10;72.90;;;;;;5078754;27;45242;-75
2022/09/18 02:53:13;;;;;;;0.20;0.10;;;22.10;73.00;;;;;;5086227;28;45566;-75
2022/09/18 02:55:44;;;;;;;0.17;0.17;;;22.10;72.90;;;;;;5086061;28;47097;-75
2022/09/18 02:58:16;;;;;;;0.15;0.10;;;22.10;73.00;;;;;;5085831;28;45345;-75
2022/09/18 03:00:47;;;;;;;0.65;0.20;;;22.10;72.80;;;;;;5083969;28;45294;-75
2022/09/18 03:03:16;;;;;;;0.63;0.20;;;22.10;73.00;;;;;;5085971;28;45400;-75
2022/09/18 03:05:43;;;;;;;0.10;0.10;;;22.10;73.00;;;;;;5085823;28;46721;-75
2022/09/18 03:08:10;;;;;;;0.20;0.20;;;22.00;72.90;;;;;;5086120;28;45252;-75
2022/09/18 03:10:37;;;;;;;0.10;0.10;;;22.10;73.10;;;;;;5086434;28;45498;-75
2022/09/18 03:13:04;;;;;;;0.38;0.20;;;22.00;72.90;;;;;;5086245;28;45144;-75
2022/09/18 03:15:31;;;;;;;0.00;0.00;;;22.10;73.10;;;;;;5085735;28;47760;-75
2022/09/18 03:18:01;;;;;;;0.52;0.40;;;22.10;73.00;;;;;;5085732;28;45468;-75
2022/09/18 03:20:27;;;;;;;0.20;0.13;;;22.10;72.90;;;;;;5085786;28;45476;-75
2022/09/18 03:22:54;;;;;;;0.30;0.17;;;22.10;73.00;;;;;;5085738;28;45551;-76
2022/09/18 03:25:21;;;;;;;0.00;0.00;;;22.00;73.00;;;;;;5086130;28;45225;-75
2022/09/18 03:27:48;;;;;;;0.20;0.17;;;22.10;73.10;;;;;;5085237;28;45305;-75
2022/09/18 03:30:15;;;;;;;0.10;0.10;;;22.10;74.20;;;;;;5083491;28;45399;-75
2022/09/18 03:32:41;;;;;;;0.13;0.10;;;22.10;73.00;;;;;;5079550;28;45429;-75
2022/09/18 03:35:10;;;;;;;0.10;0.10;;;22.10;73.00;;;;;;5080262;28;48198;-74
2022/09/18 03:37:37;;;;;;;0.22;0.10;;;22.10;73.00;;;;;;5085270;28;45295;-75
2022/09/18 03:40:04;;;;;;;0.10;0.10;;;22.10;73.10;;;;;;5085463;28;45402;-75
2022/09/18 03:42:31;;;;;;;0.30;0.10;;;22.10;73.00;;;;;;5085618;28;45332;-75
2022/09/18 03:44:58;;;;;;;0.00;0.00;;;22.10;73.00;;;;;;5085210;28;45480;-74
2022/09/18 03:47:26;;;;;;;0.10;0.10;;;22.10;73.10;;;;;;5085665;28;45100;-75
2022/09/18 03:49:52;;;;;;;0.13;0.13;;;22.10;73.20;;;;;;5085599;28;45222;-75
2022/09/18 03:52:20;;;;;;;0.10;0.10;;;22.00;73.10;;;;;;5085273;28;45567;-75
2022/09/18 03:54:47;;;;;;;0.50;0.20;;;22.10;73.20;;;;;;5083896;28;45218;-75
2022/09/18 03:57:14;;;;;;;0.10;0.10;;;22.00;73.10;;;;;;5085101;28;45320;-75
2022/09/18 03:59:41;;;;;;;0.03;0.03;;;22.10;73.30;;;;;;5085626;28;45194;-75
2022/09/18 04:02:07;;;;;;;0.30;0.10;;;22.00;73.20;;;;;;5087046;27;45560;-75
2022/09/18 04:04:34;;;;;;;0.10;0.10;;;22.00;73.30;;;;;;5088803;28;47458;-75
2022/09/18 04:07:01;;;;;;;0.47;0.25;;;22.00;73.30;;;;;;5088970;28;45419;-75
2022/09/18 04:09:35;;;;;;;0.03;0.03;;;22.00;73.30;;;;;;5089002;28;45305;-75
2022/09/18 04:12:02;;;;;;;0.30;0.20;;;22.00;73.40;;;;;;5089038;28;45414;-75
2022/09/18 04:14:29;;;;;;;0.25;0.20;;;22.00;73.30;;;;;;5088549;28;46424;-75
2022/09/18 04:16:55;;;;;;;0.10;0.10;;;22.00;73.40;;;;;;5089397;28;45238;-75
2022/09/18 04:19:22;;;;;;;0.10;0.10;;;22.00;73.60;;;;;;5088885;28;45173;-75
2022/09/18 04:21:49;;;;;;;0.00;0.00;;;22.00;73.60;;;;;;5088714;28;45568;-75
2022/09/18 04:24:15;;;;;;;0.10;0.10;;;22.00;73.60;;;;;;5088574;28;45315;-75
2022/09/18 04:26:44;;;;;;;0.15;0.15;;;22.00;73.60;;;;;;5087664;28;45285;-74
2022/09/18 04:29:10;;;;;;;0.30;0.20;;;22.00;73.70;;;;;;5087887;28;45406;-75
2022/09/18 04:31:37;;;;;;;0.32;0.15;;;22.00;73.60;;;;;;5088806;28;45222;-75
2022/09/18 04:34:04;;;;;;;0.20;0.20;;;22.00;73.60;;;;;;5088347;28;47126;-75
2022/09/18 04:36:31;;;;;;;0.10;0.10;;;22.00;73.60;;;;;;5080687;28;45205;-75
2022/09/18 04:38:58;;;;;;;0.10;0.10;;;22.00;73.50;;;;;;5088379;28;45273;-75
2022/09/18 04:41:26;;;;;;;0.20;0.20;;;22.00;73.50;;;;;;5088312;28;45215;-75
2022/09/18 04:43:54;;;;;;;0.10;0.10;;;22.00;73.70;;;;;;5087851;28;48561;-75
2022/09/18 04:46:21;;;;;;;0.10;0.10;;;22.00;73.80;;;;;;5085840;28;45903;-75
2022/09/18 04:48:49;;;;;;;0.15;0.15;;;22.00;73.80;;;;;;5077235;28;45292;-74
2022/09/18 04:51:16;;;;;;;0.17;0.17;;;22.00;73.80;;;;;;5087961;28;45559;-75
2022/09/18 04:53:43;;;;;;;0.77;0.30;;;22.00;73.90;;;;;;5088057;28;47028;-75
2022/09/18 04:56:09;;;;;;;0.38;0.20;;;22.00;73.80;;;;;;5087564;28;45339;-75
2022/09/18 04:58:36;;;;;;;0.10;0.10;;;22.00;73.80;;;;;;5087979;28;45306;-75
2022/09/18 05:01:04;;;;;;;0.10;0.10;;;22.00;73.80;;;;;;5087452;28;45428;-75
2022/09/18 05:03:31;;;;;;;0.10;0.10;;;22.00;73.90;;;;;;5087569;28;46719;-75
2022/09/18 05:05:58;;;;;;;0.65;0.22;;;22.00;73.80;;;;;;5087589;28;45196;-75
2022/09/18 05:08:24;;;;;;;0.22;0.20;;;22.00;73.90;;;;;;5087756;28;45311;-75
2022/09/18 05:10:51;;;;;;;0.08;0.08;;;22.00;73.70;;;;;;5087305;28;45420;-74
2022/09/18 05:13:18;;;;;;;0.15;0.15;;;22.00;73.70;;;;;;5086637;27;46895;-75
2022/09/18 05:15:45;;;;;;;0.10;0.10;;;22.00;74.00;;;;;;5087224;28;45657;-75
2022/09/18 05:18:23;;;;;;;0.10;0.10;;;22.00;73.70;;;;;;5087662;28;45414;-74
2022/09/18 05:20:50;;;;;;;0.10;0.10;;;22.00;73.70;;;;;;5087655;28;45388;-75
2022/09/18 05:23:17;;;;;;;0.10;0.10;;;22.00;73.60;;;;;;5086775;28;46357;-75
2022/09/18 05:25:43;;;;;;;0.20;0.10;;;22.00;73.60;;;;;;5087162;28;45308;-75
2022/09/18 05:28:12;;;;;;;0.15;0.05;;;22.00;73.50;;;;;;5086956;28;45411;-74
2022/09/18 05:30:39;;;;;;;0.32;0.17;;;22.00;73.70;;;;;;5087148;28;45349;-75
2022/09/18 05:33:08;;;;;;;0.40;0.10;;;22.00;73.60;;;;;;5087073;28;47024;-75
2022/09/18 05:35:37;;;;;;;0.10;0.10;;;22.00;73.60;;;;;;5087171;28;45404;-74
2022/09/18 05:38:04;;;;;;;0.00;0.00;;;22.00;73.60;;;;;;5086890;28;45435;-75
2022/09/18 05:40:34;;;;;;;0.55;0.17;;;22.00;73.60;;;;;;5087368;28;45227;-74
2022/09/18 05:43:01;;;;;;;0.08;0.00;;;22.00;73.60;;;;;;5086854;28;47518;-75
2022/09/18 05:45:29;;;;;;;0.45;0.10;;;22.00;73.60;;;;;;5081702;28;45262;-75
2022/09/18 05:47:57;;;;;;;0.20;0.20;;;22.00;73.80;;;;;;5087158;28;45238;-75
2022/09/18 05:50:25;;;;;;;0.17;0.17;;;22.00;73.80;;;;;;5087301;28;45238;-74
2022/09/18 05:53:01;;;;;;;0.57;0.17;;;22.00;73.90;;;;;;5086979;28;47228;-74
2022/09/18 05:55:28;;;;;;;0.17;0.17;;;22.00;73.90;;;;;;5087055;28;45380;-75
2022/09/18 05:57:56;;;;;;;0.00;0.00;;;22.00;73.80;;;;;;5086805;28;45410;-74
2022/09/18 06:00:23;;;;;;;0.15;0.13;;;22.00;73.80;;;;;;5087485;28;45494;-74
2022/09/18 06:02:55;;;;;;;0.57;0.17;;;22.00;73.80;;;;;;5086603;28;47698;-74
2022/09/18 06:05:22;;;;;;;0.38;0.10;;;22.00;73.80;;;;;;5068778;28;45411;-74
2022/09/18 06:07:49;;;;;;;0.28;0.15;;;22.00;73.80;;;;;;5086743;28;45375;-75
2022/09/18 06:10:18;;;;;;;0.80;0.00;;;22.00;73.80;;;;;;5087032;28;45400;-74
2022/09/18 06:12:46;;;;;;;0.00;0.00;;;22.00;73.70;;;;;;5086404;28;48081;-75
2022/09/18 06:15:13;;;;;;;1.30;0.30;;;22.00;73.80;;;;;;5085949;28;45203;-74
2022/09/18 06:17:40;;;;;;;0.10;0.10;;;22.00;73.80;;;;;;5086105;28;45407;-74
2022/09/18 06:20:09;;;;;;;0.57;0.20;;;22.00;73.80;;;;;;5069422;28;45191;-75
2022/09/18 06:22:36;;;;;;;0.68;0.43;;;22.00;73.90;;;;;;5078985;28;45511;-74
2022/09/18 06:25:03;;;;;;;0.30;0.20;;;22.00;73.90;;;;;;5086042;27;45414;-74
2022/09/18 06:27:32;;;;;;;0.28;0.20;;;22.00;74.10;;;;;;5084076;28;45304;-74
2022/09/18 06:29:59;;;;;;;0.20;0.10;;;22.00;74.00;;;;;;5083312;28;45405;-75
2022/09/18 06:32:26;;;;;;;0.25;0.13;;;22.00;74.00;;;;;;5086385;28;47954;-75
2022/09/18 06:34:53;;;;;;;1.27;0.10;;;22.00;74.00;;;;;;5086254;28;45254;-74
2022/09/18 06:37:20;;;;;;;0.10;0.10;;;22.00;73.90;;;;;;5085610;28;45515;-74
2022/09/18 06:39:47;;;;;;;0.13;0.13;;;22.00;73.80;;;;;;5086105;28;45139;-75
2022/09/18 06:42:15;;;;;;;1.30;0.30;;;22.00;73.80;;;;;;5085479;28;45332;-75
2022/09/18 06:44:43;;;;;;;0.30;0.20;;;22.00;73.80;;;;;;5085711;28;45357;-75
2022/09/18 06:47:10;;;;;;;0.10;0.10;;;22.00;73.80;;;;;;5086283;28;45317;-74
2022/09/18 06:49:37;;;;;;;0.43;0.28;;;22.00;73.80;;;;;;5086290;28;45504;-75
2022/09/18 06:52:04;;;;;;;0.40;0.30;;;22.00;73.80;;;;;;5086176;28;46419;-74
2022/09/18 06:54:30;;;;;;;1.00;0.30;;;22.00;73.70;;;;;;5086212;28;45275;-75
2022/09/18 06:56:57;;;;;;;0.38;0.10;;;22.00;73.70;;;;;;5086075;28;45338;-75
2022/09/18 06:59:24;;;;;;;0.68;0.20;;;22.00;73.70;;;;;;5086279;28;45606;-75
2022/09/18 07:01:52;;;;;;;0.13;0.13;;;22.00;73.60;;;;;;5086049;28;45382;-75
2022/09/18 07:04:30;;;;;;;0.60;0.20;;;22.00;73.60;;;;;;5086354;28;45324;-75
2022/09/18 07:06:57;;;;;;;1.10;0.30;;;22.00;73.60;;;;;;5086168;28;45274;-75
2022/09/18 07:09:24;;;;;;;0.45;0.15;;;22.00;73.60;;;;;;5086420;28;45419;-75
2022/09/18 07:11:50;;;;;;;0.63;0.10;;;22.00;73.60;;;;;;5085838;28;47734;-75
2022/09/18 07:14:17;;;;;;;0.10;0.10;;;22.00;73.60;;;;;;5085942;28;45234;-75
2022/09/18 07:16:44;;;;;;;1.73;0.30;;;22.00;73.70;;;;;;5085839;28;45251;-75
2022/09/18 07:19:12;;;;;;;0.52;0.30;;;21.90;73.60;;;;;;5074324;28;45723;-74
2022/09/18 07:21:39;;;;;;;1.10;0.28;;;22.00;73.60;;;;;;5070303;28;46335;-74
2022/09/18 07:24:06;;;;;;;0.90;0.15;;;22.00;73.60;;;;;;5085323;28;45292;-74
2022/09/18 07:26:33;;;;;;;0.08;0.05;;;22.00;73.60;;;;;;5066637;28;45404;-75
2022/09/18 07:28:59;;;;;;;0.75;0.20;;;22.00;73.50;;;;;;5071932;28;45678;-75
2022/09/18 07:31:26;;;;;;;0.10;0.10;;;22.00;73.60;;;;;;5064971;28;46714;-74
2022/09/18 07:33:54;;;;;;;0.30;0.20;;;22.00;74.50;;;;;;5080772;28;45202;-75
2022/09/18 07:36:22;;;;;;;0.22;0.10;;;22.00;73.60;;;;;;5084943;28;45360;-74
2022/09/18 07:38:51;;;;;;;0.30;0.30;;;22.00;73.50;;;;;;5085776;28;45181;-75
2022/09/18 07:41:18;;;;;;;0.47;0.30;;;22.00;73.50;;;;;;5084836;28;46767;-75
2022/09/18 07:43:45;;;;;;;0.28;0.10;;;22.00;73.40;;;;;;5085438;28;45496;-75
2022/09/18 07:46:12;;;;;;;0.32;0.20;;;22.00;73.40;;;;;;5085481;28;45261;-75
2022/09/18 07:48:38;;;;;;;0.52;0.30;;;22.00;73.30;;;;;;5085656;28;45358;-75
2022/09/18 07:51:06;;;;;;;0.22;0.22;;;22.00;73.40;;;;;;5085085;28;48389;-75
2022/09/18 07:53:36;;;;;;;0.47;0.28;;;22.00;73.40;;;;;;5085194;28;45407;-74
2022/09/18 07:56:24;;;;;;;0.20;0.13;;;22.00;73.40;;;;;;5085469;28;45223;-75
2022/09/18 07:58:51;;;;;;;0.75;0.28;;;22.00;73.50;;;;;;5085343;28;45351;-75
2022/09/18 08:01:18;;;;;;;1.02;0.50;;;22.00;73.40;;;;;;5085308;28;46221;-75
2022/09/18 08:03:45;;;;;;;0.40;0.10;;;22.00;73.30;;;;;;5085304;28;45307;-75
2022/09/18 08:06:12;;;;;;;0.35;0.10;;;22.00;73.50;;;;;;5085214;28;45202;-74
2022/09/18 08:08:40;;;;;;;0.63;0.20;;;22.00;73.50;;;;;;5084616;28;45328;-74
2022/09/18 08:11:07;;;;;;;0.38;0.30;;;22.00;73.30;;;;;;5084519;28;47044;-74
2022/09/18 08:13:33;;;;;;;2.08;0.40;;;22.00;73.40;;;;;;5084579;28;45305;-75
2022/09/18 08:16:02;;;;;;;0.55;0.25;;;22.00;73.50;;;;;;5084808;28;45364;-75
2022/09/18 08:18:29;;;;;;;0.20;0.10;;;22.00;73.50;;;;;;5084900;28;45316;-75
2022/09/18 08:20:56;;;;;;;0.10;0.10;;;22.00;73.70;;;;;;5084267;28;47081;-75
2022/09/18 08:23:23;;;;;;;0.57;0.30;;;22.00;73.50;;;;;;5084886;28;45315;-74
2022/09/18 08:25:51;;;;;;;0.10;0.10;;;22.00;73.40;;;;;;5085205;28;45473;-74
2022/09/18 08:28:18;;;;;;;0.20;0.20;;;22.00;73.30;;;;;;5083779;28;45443;-75
2022/09/18 08:30:45;;;;;;;0.40;0.20;;;22.00;73.20;;;;;;5084429;28;48196;-75
2022/09/18 08:33:12;;;;;;;0.43;0.20;;;22.00;73.20;;;;;;5084883;28;45263;-75
2022/09/18 08:35:39;;;;;;;9.27;0.90;;;22.00;73.10;;;;;;5081935;28;45246;-72
2022/09/18 08:38:09;;;;;;;7.80;0.93;;;22.10;74.30;;;;;;5077958;28;45528;-72
2022/09/18 08:40:59;;;;;;;27.45;2.13;;;22.10;74.90;;;;;;5081396;28;45417;-71
2022/09/18 08:43:42;;;;;;;18.52;1.40;;;22.20;74.50;;;;;;5070779;28;45433;-72
2022/09/18 08:46:13;;;;;;;16.60;1.45;;;22.20;74.50;;;;;;5074273;28;45443;-72
2022/09/18 08:48:45;;;;;;;8.45;0.88;;;22.20;74.70;;;;;;5078912;27;45194;-72
2022/09/18 08:51:19;;;;;;;7.90;0.80;;;22.30;74.90;;;;;;5081196;28;46476;-73
2022/09/18 08:53:50;;;;;;;6.80;0.80;;;22.20;74.70;;;;;;5083547;28;46000;-72
2022/09/18 08:56:22;;;;;;;3.85;0.90;;;22.20;74.20;;;;;;5084270;27;45265;-73
2022/09/18 08:58:55;;;;;;;3.40;0.63;;;22.20;74.00;;;;;;5082006;27;45503;-73
2022/09/18 09:01:27;;;;;;;2.60;0.50;;;22.10;73.70;;;;;;5077756;28;47400;-73
2022/09/18 09:04:00;;;;;;;2.55;0.45;;;22.10;74.70;;;;;;5076716;27;45421;-73
2022/09/18 09:06:43;;;;;;;3.13;0.40;;;22.20;73.70;;;;;;5075264;28;45379;-73
2022/09/18 09:09:28;;;;;;;1.95;0.30;;;22.10;73.60;;;;;;5083761;27;45408;-72
2022/09/18 09:12:03;;;;;;;0.77;0.30;;;22.10;73.70;;;;;;5080370;28;47333;-72
2022/09/18 09:14:54;;;;;;;0.82;0.22;;;22.10;73.60;;;;;;5077861;28;46218;-72
2022/09/18 09:17:37;;;;;;;4.07;0.30;;;22.10;73.60;;;;;;5082390;28;45278;-72
2022/09/18 09:20:15;;;;;;;2.35;0.40;;;22.10;73.70;;;;;;5083271;28;45329;-74
2022/09/18 09:22:49;;;;;;;2.00;0.50;;;22.20;74.10;;;;;;5078067;28;45477;-73
2022/09/18 09:25:21;;;;;;;1.15;0.30;;;22.10;74.00;;;;;;5076970;28;45392;-73
2022/09/18 09:27:57;;;;;;;1.23;0.30;;;22.10;73.80;;;;;;5085069;28;45362;-73
2022/09/18 09:30:24;;;;;;;1.52;0.35;;;22.10;74.10;;;;;;5072179;28;45525;-72
2022/09/18 09:32:54;;;;;;;1.38;0.22;;;22.10;74.00;;;;;;5078147;28;47771;-74
2022/09/18 09:35:28;;;;;;;2.03;0.40;;;22.10;73.90;;;;;;5081858;27;45288;-74
2022/09/18 09:37:55;;;;;;;0.40;0.20;;;22.10;74.00;;;;;;5075860;28;45360;-73
2022/09/18 09:40:31;;;;;;;0.63;0.22;;;22.10;73.80;;;;;;5084563;28;45677;-73
2022/09/18 09:43:03;;;;;;;0.45;0.30;;;22.10;73.70;;;;;;5084575;28;47466;-70
2022/09/18 09:45:38;;;;;;;5.53;0.60;;;22.10;73.60;;;;;;5082816;28;45338;-73
2022/09/18 09:48:10;;;;;;;6.78;0.75;;;22.10;73.80;;;;;;5084827;28;45367;-73
2022/09/18 09:50:45;;;;;;;7.38;0.70;;;22.10;74.10;;;;;;5082017;28;45434;-74
2022/09/18 09:53:13;;;;;;;8.07;0.65;;;22.10;74.20;;;;;;5081817;28;45410;-73
2022/09/18 09:55:48;;;;;;;0.75;0.40;;;22.10;74.40;;;;;;5084586;27;45264;-74
2022/09/18 09:58:30;;;;;;;1.10;0.43;;;22.20;74.40;;;;;;5084149;28;45636;-73
2022/09/18 10:01:06;;;;;;;2.50;0.40;;;22.10;74.50;;;;;;5077236;28;45487;-74
2022/09/18 10:03:41;;;;;;;1.05;0.40;;;22.10;74.60;;;;;;5072638;28;46569;-74
2022/09/18 10:06:19;;;;;;;1.08;0.47;;;22.10;74.80;;;;;;5082122;28;45730;-73
2022/09/18 10:08:50;;;;;;;0.60;0.30;;;22.20;74.80;;;;;;5081078;28;45365;-70
2022/09/18 10:11:17;;;;;;;3.53;0.68;;;22.20;74.90;;;;;;5084659;28;45304;-73
2022/09/18 10:13:51;;;;;;;1.45;0.50;;;22.20;78.30;;;;;;5082740;28;45268;-70
2022/09/18 10:16:21;;;;;;;1.75;0.30;;;22.30;79.30;;;;;;5083040;28;45652;-71
2022/09/18 10:18:49;;;;;;;30.85;3.03;;;22.30;81.10;;;;;;5075806;28;45411;-70
2022/09/18 10:21:17;;;;;;;24.20;1.50;;;22.30;82.20;;;;;;5081978;28;45348;-71
2022/09/18 10:23:48;;;;;;;7.97;1.02;;;22.30;80.30;;;;;;5080475;28;47043;-71
2022/09/18 10:26:22;;;;;;;11.73;1.08;;;22.20;79.60;;;;;;5082493;28;45361;-71
2022/09/18 10:28:50;;;;;;;6.72;0.85;;;22.20;80.10;;;;;;5082524;28;45399;-71
2022/09/18 10:31:18;;;;;;;4.78;0.73;;;22.20;78.90;;;;;;5074335;28;45415;-71
2022/09/18 10:33:46;;;;;;;3.63;0.63;;;22.20;79.00;;;;;;5077590;28;45353;-71
2022/09/18 10:36:28;;;;;;;4.47;0.93;;;22.20;78.90;;;;;;5081745;28;45864;-72
2022/09/18 10:38:55;;;;;;;3.33;0.43;;;22.20;79.00;;;;;;5082446;28;45430;-71
2022/09/18 10:41:29;;;;;;;3.25;0.50;;;22.20;78.90;;;;;;5083294;28;45602;-71
2022/09/18 10:44:03;;;;;;;4.53;0.73;;;22.10;78.70;;;;;;5081997;28;48030;-71
2022/09/18 10:46:33;;;;;;;1.58;0.38;;;22.20;78.90;;;;;;5080576;28;45436;-71
2022/09/18 10:49:15;;;;;;;2.95;0.57;;;22.20;79.00;;;;;;5083084;27;45469;-72
2022/09/18 10:51:42;;;;;;;1.48;0.50;;;22.10;78.80;;;;;;5081458;28;45415;-71
2022/09/18 10:54:17;;;;;;;2.42;0.40;;;22.10;80.10;;;;;;5081932;28;48253;-70
2022/09/18 10:56:43;;;;;;;1.58;0.50;;;22.10;79.40;;;;;;5074832;28;45494;-71
2022/09/18 10:59:34;;;;;;;2.67;0.40;;;22.10;79.50;;;;;;5083963;27;45417;-71
2022/09/18 11:02:04;;;;;;;1.33;0.38;;;22.10;80.00;;;;;;5073716;28;45351;-71
2022/09/18 11:04:33;;;;;;;1.48;0.52;;;22.10;80.10;;;;;;5080836;28;46699;-71
2022/09/18 11:07:06;;;;;;;0.60;0.38;;;22.20;80.20;;;;;;5071453;28;45380;-72
2022/09/18 11:09:36;;;;;;;0.98;0.30;;;22.10;80.10;;;;;;5079610;28;45313;-71
2022/09/18 11:12:04;;;;;;;0.40;0.20;;;22.20;79.90;;;;;;5081983;27;45411;-71
2022/09/18 11:14:40;;;;;;;0.60;0.30;;;22.20;79.70;;;;;;5081274;27;46567;-71
2022/09/18 11:17:14;;;;;;;0.85;0.38;;;22.20;80.10;;;;;;5082375;28;45470;-71
2022/09/18 11:19:41;;;;;;;0.30;0.30;;;22.20;79.60;;;;;;5082636;28;45438;-71
2022/09/18 11:22:33;;;;;;;0.30;0.20;;;22.20;79.50;;;;;;5083383;28;45275;-72
2022/09/18 11:25:15;;;;;;;1.25;0.40;;;22.20;79.10;;;;;;5082277;28;47249;-71
2022/09/18 11:27:47;;;;;;;0.47;0.32;;;22.20;79.10;;;;;;5075596;28;45448;-71
2022/09/18 11:30:21;;;;;;;2.15;0.38;;;22.20;78.70;;;;;;5080779;28;45317;-72
2022/09/18 11:32:53;;;;;;;0.82;0.20;;;22.20;79.10;;;;;;5073232;28;45563;-71
2022/09/18 11:35:21;;;;;;;1.02;0.40;;;22.20;78.90;;;;;;5078754;28;46280;-71
2022/09/18 11:37:52;;;;;;;0.73;0.22;;;22.20;79.10;;;;;;5077390;28;45333;-71
2022/09/18 11:40:22;;;;;;;0.93;0.22;;;22.20;79.10;;;;;;5078065;28;45447;-71
2022/09/18 11:42:52;;;;;;;0.70;0.38;;;22.20;79.20;;;;;;5073806;28;45421;-71
2022/09/18 11:45:51;;;;;;;0.28;0.25;;;22.20;79.60;;;;;;5080977;28;45427;-71
2022/09/18 11:48:26;;;;;;;0.45;0.20;;;22.20;79.60;;;;;;5071452;28;45434;-72
2022/09/18 11:50:56;;;;;;;0.90;0.40;;;22.20;80.10;;;;;;5081262;28;45344;-71
2022/09/18 11:53:25;;;;;;;0.25;0.20;;;22.20;79.90;;;;;;5081252;28;45683;-71
2022/09/18 11:55:58;;;;;;;1.35;0.47;;;22.20;79.60;;;;;;5082776;28;46291;-71
2022/09/18 11:58:33;;;;;;;1.02;0.38;;;22.20;80.20;;;;;;5081797;28;45419;-71
2022/09/18 12:01:12;;;;;;;0.35;0.35;;;22.20;80.20;;;;;;5082600;28;45459;-71
2022/09/18 12:03:46;;;;;;;0.47;0.20;;;22.20;80.10;;;;;;5081429;28;45293;-71
2022/09/18 12:06:18;;;;;;;0.40;0.30;;;22.30;80.20;;;;;;5082941;28;45387;-72
2022/09/18 12:08:51;;;;;;;0.80;0.22;;;22.20;80.10;;;;;;5082578;28;45696;-72
2022/09/18 12:11:24;;;;;;;1.55;0.40;;;22.20;80.10;;;;;;5082511;28;45290;-71
2022/09/18 12:14:02;;;;;;;1.45;0.40;;;22.30;80.20;;;;;;5082509;28;45233;-72
2022/09/18 12:16:41;;;;;;;0.50;0.35;;;22.30;80.20;;;;;;5082087;28;46265;-72
2022/09/18 12:19:13;;;;;;;1.92;0.50;;;22.30;80.20;;;;;;5082779;28;45376;-72
2022/09/18 12:21:46;;;;;;;0.65;0.32;;;22.30;80.30;;;;;;5081794;28;45357;-73
2022/09/18 12:24:15;;;;;;;1.02;0.30;;;22.30;80.20;;;;;;5085656;27;45385;-71
2022/09/18 12:26:49;;;;;;;0.20;0.20;;;22.30;81.00;;;;;;5086007;28;47635;-71
2022/09/18 12:29:29;;;;;;;0.20;0.20;;;22.30;80.30;;;;;;5085510;28;45307;-72
2022/09/18 12:32:07;;;;;;;2.53;0.30;;;22.30;80.30;;;;;;5086252;28;45357;-72
2022/09/18 12:34:41;;;;;;;2.58;0.50;;;22.30;80.80;;;;;;5086078;28;45210;-72
2022/09/18 12:37:19;;;;;;;1.20;0.30;;;22.30;81.20;;;;;;5085899;28;47149;-72
2022/09/18 12:40:13;;;;;;;0.35;0.20;;;22.30;81.40;;;;;;5086136;28;45478;-71
2022/09/18 12:42:49;;;;;;;0.73;0.30;;;22.40;81.70;;;;;;5082771;28;45430;-71
2022/09/18 12:45:39;;;;;;;0.52;0.30;;;22.40;81.80;;;;;;5085698;28;45336;-72
2022/09/18 12:48:23;;;;;;;1.45;0.45;;;22.30;81.90;;;;;;5085539;28;46447;-72
2022/09/18 12:51:09;;;;;;;0.80;0.40;;;22.40;82.00;;;;;;5085602;28;45668;-72
2022/09/18 12:53:49;;;;;;;0.30;0.20;;;22.30;81.70;;;;;;5085420;28;45213;-73
2022/09/18 12:56:28;;;;;;;0.38;0.30;;;22.30;82.10;;;;;;5085842;28;45526;-72
2022/09/18 12:59:27;;;;;;;0.30;0.30;;;22.30;82.30;;;;;;5085282;28;46174;-71
2022/09/18 13:01:58;;;;;;;0.20;0.20;;;22.30;82.30;;;;;;5079072;28;45261;-71
2022/09/18 13:04:31;;;;;;;1.40;0.28;;;22.30;82.40;;;;;;5066231;28;45262;-72